createdAt,value
2024-04-08T00:00:12.518Z,9.93
2024-04-08T00:03:10.112Z,9.92
2024-04-08T00:05:38.131Z,9.92
2024-04-08T00:08:06.326Z,9.88
2024-04-08T00:10:37.247Z,9.85
2024-04-08T00:13:06.508Z,9.83
2024-04-08T00:15:34.170Z,9.81
2024-04-08T00:18:02.686Z,9.81
2024-04-08T00:20:30.300Z,9.80
2024-04-08T00:22:58.017Z,9.77
2024-04-08T00:25:26.177Z,9.78
2024-04-08T00:27:53.940Z,9.79
2024-04-08T00:30:21.489Z,9.78
2024-04-08T00:32:49.137Z,9.78
2024-04-08T00:35:16.880Z,9.76
2024-04-08T00:37:44.598Z,9.76
2024-04-08T00:40:13.300Z,9.75
2024-04-08T00:42:40.898Z,9.74
2024-04-08T00:45:08.493Z,9.74
2024-04-08T00:47:36.215Z,9.74
2024-04-08T00:50:04.699Z,9.76
2024-04-08T00:52:32.574Z,9.76
2024-04-08T00:55:00.415Z,9.76
2024-04-08T00:57:32.338Z,9.75
2024-04-08T01:00:01.204Z,9.76
2024-04-08T01:02:28.871Z,9.77
2024-04-08T01:04:56.518Z,9.78
2024-04-08T01:07:24.100Z,9.85
2024-04-08T01:09:51.693Z,9.90
2024-04-08T01:12:19.276Z,9.92
2024-04-08T01:14:48.897Z,9.91
2024-04-08T01:17:17.388Z,9.91
2024-04-08T01:19:47.606Z,9.93
2024-04-08T01:22:15.409Z,9.92
2024-04-08T01:24:42.957Z,9.91
2024-04-08T01:27:10.513Z,9.90
2024-04-08T01:29:38.229Z,9.88
2024-04-08T01:32:06.088Z,9.85
2024-04-08T01:34:33.734Z,9.81
2024-04-08T01:37:01.405Z,9.78
2024-04-08T01:39:29.057Z,9.73
2024-04-08T01:41:56.827Z,9.69
2024-04-08T01:44:24.530Z,9.65
2024-04-08T01:46:52.243Z,9.63
2024-04-08T01:49:21.452Z,9.60
2024-04-08T01:51:49.295Z,9.56
2024-04-08T01:54:16.951Z,9.52
2024-04-08T01:56:44.958Z,9.51
2024-04-08T01:59:12.521Z,9.48
2024-04-08T02:01:40.164Z,9.48
2024-04-08T02:04:07.731Z,9.47
2024-04-08T02:06:35.730Z,9.42
2024-04-08T02:09:03.407Z,9.38
2024-04-08T02:11:30.972Z,9.33
2024-04-08T02:13:58.634Z,9.30
2024-04-08T02:16:26.357Z,9.27
2024-04-08T02:18:53.955Z,9.25
2024-04-08T02:21:22.385Z,9.20
2024-04-08T02:23:50.235Z,9.20
2024-04-08T02:26:18.002Z,9.20
2024-04-08T02:28:45.623Z,9.20
2024-04-08T02:31:13.295Z,9.22
2024-04-08T02:33:41.310Z,9.21
2024-04-08T02:36:09.008Z,9.24
2024-04-08T02:38:37.185Z,9.23
2024-04-08T02:41:05.068Z,9.27
2024-04-08T02:43:33.822Z,9.28
2024-04-08T02:46:01.467Z,9.31
2024-04-08T02:48:29.117Z,9.30
2024-04-08T02:50:56.863Z,9.30
2024-04-08T02:53:25.147Z,9.31
2024-04-08T02:56:02.489Z,9.34
2024-04-08T02:58:30.942Z,9.35
2024-04-08T03:01:04.043Z,9.37
2024-04-08T03:03:31.592Z,9.37
2024-04-08T03:06:11.058Z,9.35
2024-04-08T03:08:43.602Z,9.34
2024-04-08T03:11:13.396Z,9.34
2024-04-08T03:13:41.538Z,9.38
2024-04-08T03:16:09.170Z,9.43
2024-04-08T03:18:37.251Z,9.43
2024-04-08T03:21:05.752Z,9.44
2024-04-08T03:23:33.774Z,9.43
2024-04-08T03:26:13.343Z,9.44
2024-04-08T03:28:41.100Z,9.44
2024-04-08T03:31:08.663Z,9.42
2024-04-08T03:33:36.390Z,9.46
2024-04-08T03:36:11.301Z,9.55
2024-04-08T03:38:38.923Z,9.55
2024-04-08T03:41:07.949Z,9.52
2024-04-08T03:43:35.617Z,9.53
2024-04-08T03:46:05.367Z,9.55
2024-04-08T03:48:32.970Z,9.57
2024-04-08T03:51:13.572Z,9.59
2024-04-08T03:53:41.469Z,9.62
2024-04-08T03:56:11.924Z,9.63
2024-04-08T03:58:41.976Z,9.64
2024-04-08T04:01:10.824Z,9.72
2024-04-08T04:03:39.006Z,9.76
2024-04-08T04:06:06.974Z,9.76
2024-04-08T04:08:35.133Z,9.73
2024-04-08T04:11:03.005Z,9.67
2024-04-08T04:13:30.902Z,9.61
2024-04-08T04:15:58.582Z,9.59
2024-04-08T04:18:26.247Z,9.61
2024-04-08T04:20:53.879Z,9.56
2024-04-08T04:23:23.683Z,9.52
2024-04-08T04:25:59.591Z,9.55
2024-04-08T04:28:28.583Z,9.61
2024-04-08T04:30:59.050Z,9.62
2024-04-08T04:33:28.391Z,9.56
2024-04-08T04:35:58.926Z,9.56
2024-04-08T04:38:27.218Z,9.52
2024-04-08T04:41:03.632Z,9.47
2024-04-08T04:43:31.855Z,9.51
2024-04-08T04:45:59.931Z,9.52
2024-04-08T04:48:27.704Z,9.51
2024-04-08T04:50:55.584Z,9.49
2024-04-08T04:53:23.260Z,9.41
2024-04-08T04:55:53.472Z,9.36
2024-04-08T04:58:22.176Z,9.31
2024-04-08T05:00:51.394Z,9.30
2024-04-08T05:03:19.954Z,9.28
2024-04-08T05:05:56.166Z,9.32
2024-04-08T05:08:24.924Z,9.33
2024-04-08T05:10:53.103Z,9.29
2024-04-08T05:13:21.028Z,9.25
2024-04-08T05:16:00.168Z,9.19
2024-04-08T05:18:32.733Z,9.16
2024-04-08T05:21:01.140Z,9.17
2024-04-08T05:23:29.245Z,9.21
2024-04-08T05:25:57.004Z,9.18
2024-04-08T05:28:25.107Z,9.18
2024-04-08T05:30:52.940Z,9.26
2024-04-08T05:33:21.421Z,9.25
2024-04-08T05:35:49.368Z,9.21
2024-04-08T05:38:17.268Z,9.25
2024-04-08T05:40:44.936Z,9.31
2024-04-08T05:43:16.476Z,9.36
2024-04-08T05:45:44.310Z,9.36
2024-04-08T05:48:12.042Z,9.38
2024-04-08T05:50:39.667Z,9.34
2024-04-08T05:53:07.341Z,9.33
2024-04-08T05:55:34.995Z,9.35
2024-04-08T05:58:03.989Z,9.35
2024-04-08T06:00:32.971Z,9.35
2024-04-08T06:03:01.139Z,9.39
2024-04-08T06:05:28.942Z,9.45
2024-04-08T06:07:56.830Z,9.55
2024-04-08T06:10:31.763Z,9.64
2024-04-08T06:13:00.695Z,9.80
2024-04-08T06:15:28.370Z,9.91
2024-04-08T06:17:56.036Z,9.97
2024-04-08T06:20:23.728Z,10.01
2024-04-08T06:22:51.405Z,10.05
2024-04-08T06:25:19.119Z,10.11
2024-04-08T06:27:48.387Z,10.18
2024-04-08T06:30:16.092Z,10.23
2024-04-08T06:32:49.899Z,10.32
2024-04-08T06:35:18.166Z,10.35
2024-04-08T06:37:45.813Z,10.40
2024-04-08T06:40:13.545Z,10.42
2024-04-08T06:42:41.127Z,10.47
2024-04-08T06:45:08.991Z,10.52
2024-04-08T06:47:36.803Z,10.54
2024-04-08T06:50:04.963Z,10.58
2024-04-08T06:52:32.571Z,10.63
2024-04-08T06:55:00.152Z,10.73
2024-04-08T06:57:27.873Z,10.81
2024-04-08T06:59:55.492Z,10.90
2024-04-08T07:02:23.149Z,11.02
2024-04-08T07:04:50.834Z,11.19
2024-04-08T07:07:18.481Z,11.37
2024-04-08T07:09:46.049Z,11.52
2024-04-08T07:12:13.739Z,11.66
2024-04-08T07:14:41.315Z,11.81
2024-04-08T07:17:08.906Z,11.87
2024-04-08T07:19:38.309Z,11.93
2024-04-08T07:22:05.893Z,11.93
2024-04-08T07:24:33.451Z,11.99
2024-04-08T07:27:02.353Z,12.10
2024-04-08T07:29:30.092Z,12.20
2024-04-08T07:31:57.632Z,12.33
2024-04-08T07:34:25.211Z,12.44
2024-04-08T07:36:52.900Z,12.53
2024-04-08T07:39:21.965Z,12.65
2024-04-08T07:41:50.669Z,12.75
2024-04-08T07:44:18.305Z,12.78
2024-04-08T07:46:46.216Z,12.88
2024-04-08T07:49:13.908Z,13.01
2024-04-08T07:51:41.457Z,13.09
2024-04-08T07:54:09.046Z,13.19
2024-04-08T07:56:36.908Z,13.24
2024-04-08T07:59:04.809Z,13.26
2024-04-08T08:01:32.482Z,13.28
2024-04-08T08:04:00.044Z,13.32
2024-04-08T08:06:27.684Z,13.41
2024-04-08T08:08:55.309Z,13.50
2024-04-08T08:11:23.143Z,13.57
2024-04-08T08:13:50.830Z,13.65
2024-04-08T08:16:18.475Z,13.66
2024-04-08T08:18:48.347Z,13.71
2024-04-08T08:21:15.953Z,13.74
2024-04-08T08:23:43.643Z,13.86
2024-04-08T08:26:11.363Z,14.00
2024-04-08T08:28:38.984Z,14.14
2024-04-08T08:31:06.572Z,14.20
2024-04-08T08:33:34.192Z,14.23
2024-04-08T08:36:01.800Z,14.30
2024-04-08T08:38:29.477Z,14.39
2024-04-08T08:41:08.689Z,14.53
2024-04-08T08:43:39.346Z,14.65
2024-04-08T08:46:07.041Z,14.64
2024-04-08T08:48:34.890Z,14.59
2024-04-08T08:51:05.683Z,14.56
2024-04-08T08:53:33.339Z,14.54
2024-04-08T08:56:04.097Z,14.52
2024-04-08T08:58:32.317Z,14.59
2024-04-08T09:01:01.237Z,14.65
2024-04-08T09:03:34.574Z,14.63
2024-04-08T09:06:02.222Z,14.68
2024-04-08T09:08:29.781Z,14.77
2024-04-08T09:10:58.681Z,14.86
2024-04-08T09:13:27.576Z,14.98
2024-04-08T09:15:55.190Z,15.10
2024-04-08T09:18:23.349Z,15.19
2024-04-08T09:20:51.411Z,15.32
2024-04-08T09:23:19.397Z,15.38
2024-04-08T09:25:47.238Z,15.48
2024-04-08T09:28:14.956Z,15.53
2024-04-08T09:30:43.098Z,15.65
2024-04-08T09:33:12.606Z,15.73
2024-04-08T09:35:43.504Z,15.76
2024-04-08T09:38:13.300Z,15.73
2024-04-08T09:40:41.483Z,15.81
2024-04-08T09:43:13.778Z,15.83
2024-04-08T09:45:43.266Z,15.81
2024-04-08T09:48:14.064Z,15.80
2024-04-08T09:50:45.106Z,15.81
2024-04-08T09:53:12.920Z,15.88
2024-04-08T09:55:44.664Z,15.95
2024-04-08T09:58:19.409Z,16.07
2024-04-08T10:00:47.929Z,16.25
2024-04-08T10:03:18.207Z,16.45
2024-04-08T10:05:47.361Z,16.49
2024-04-08T10:08:15.073Z,16.60
2024-04-08T10:10:43.182Z,16.70
2024-04-08T10:13:12.643Z,16.80
2024-04-08T10:15:41.350Z,16.82
2024-04-08T10:18:09.194Z,16.88
2024-04-08T10:20:43.359Z,16.83
2024-04-08T10:23:11.421Z,16.86
2024-04-08T10:25:44.418Z,16.96
2024-04-08T10:28:15.532Z,17.05
2024-04-08T10:30:46.018Z,17.05
2024-04-08T10:33:14.508Z,17.04
2024-04-08T10:35:42.397Z,16.98
2024-04-08T10:38:10.861Z,16.95
2024-04-08T10:40:39.472Z,16.95
2024-04-08T10:43:07.024Z,16.88
2024-04-08T10:45:34.818Z,16.90
2024-04-08T10:48:05.290Z,16.88
2024-04-08T10:50:34.927Z,16.86
2024-04-08T10:53:03.581Z,16.97
2024-04-08T10:55:31.574Z,17.05
2024-04-08T10:58:00.160Z,17.18
2024-04-08T11:00:28.493Z,17.44
2024-04-08T11:02:56.686Z,17.52
2024-04-08T11:05:25.470Z,17.56
2024-04-08T11:07:53.505Z,17.69
2024-04-08T11:10:23.586Z,17.76
2024-04-08T11:12:51.146Z,17.83
2024-04-08T11:15:18.823Z,17.73
2024-04-08T11:17:46.601Z,17.60
2024-04-08T11:20:14.628Z,17.53
2024-04-08T11:22:42.277Z,17.57
2024-04-08T11:25:17.143Z,17.69
2024-04-08T11:27:46.405Z,17.79
2024-04-08T11:30:18.433Z,17.92
2024-04-08T11:32:46.377Z,17.92
2024-04-08T11:35:14.160Z,17.90
2024-04-08T11:37:44.366Z,17.93
2024-04-08T11:40:14.036Z,17.90
2024-04-08T11:42:41.581Z,18.04
2024-04-08T11:45:09.890Z,18.17
2024-04-08T11:47:39.056Z,18.20
2024-04-08T11:50:08.397Z,18.41
2024-04-08T11:52:37.356Z,18.64
2024-04-08T11:55:06.413Z,18.77
2024-04-08T11:57:34.800Z,18.89
2024-04-08T12:00:05.472Z,18.94
2024-04-08T12:02:39.186Z,18.95
2024-04-08T12:05:06.813Z,18.91
2024-04-08T12:07:34.357Z,18.84
2024-04-08T12:10:01.868Z,18.80
2024-04-08T12:12:30.408Z,18.83
2024-04-08T12:14:57.980Z,18.90
2024-04-08T12:17:25.503Z,18.99
2024-04-08T12:19:54.292Z,19.15
2024-04-08T12:22:21.817Z,19.22
2024-04-08T12:24:49.439Z,19.14
2024-04-08T12:27:17.179Z,19.11
2024-04-08T12:29:44.971Z,19.07
2024-04-08T12:32:12.552Z,18.97
2024-04-08T12:34:40.054Z,18.86
2024-04-08T12:37:08.509Z,18.85
2024-04-08T12:39:36.152Z,18.77
2024-04-08T12:42:03.814Z,18.78
2024-04-08T12:44:31.333Z,18.70
2024-04-08T12:46:59.594Z,18.63
2024-04-08T12:49:27.127Z,18.64
2024-04-08T12:51:54.688Z,18.78
2024-04-08T12:54:22.625Z,19.07
2024-04-08T12:56:50.871Z,19.31
2024-04-08T12:59:18.355Z,19.36
2024-04-08T13:01:45.847Z,19.34
2024-04-08T13:04:13.462Z,19.39
2024-04-08T13:06:40.967Z,19.42
2024-04-08T13:09:09.178Z,19.44
2024-04-08T13:11:37.047Z,19.44
2024-04-08T13:14:07.178Z,19.53
2024-04-08T13:16:35.108Z,19.65
2024-04-08T13:19:02.810Z,19.71
2024-04-08T13:21:30.463Z,19.76
2024-04-08T13:23:58.260Z,19.75
2024-04-08T13:26:27.249Z,19.68
2024-04-08T13:28:54.758Z,19.57
2024-04-08T13:31:22.227Z,19.36
2024-04-08T13:33:49.831Z,19.27
2024-04-08T13:36:17.592Z,19.20
2024-04-08T13:38:45.089Z,19.26
2024-04-08T13:41:12.579Z,19.51
2024-04-08T13:43:42.901Z,19.75
2024-04-08T13:46:12.462Z,19.71
2024-04-08T13:48:40.182Z,19.68
2024-04-08T13:51:09.427Z,19.84
2024-04-08T13:53:36.983Z,19.98
2024-04-08T13:56:05.098Z,20.15
2024-04-08T13:58:32.811Z,20.19
2024-04-08T14:01:01.282Z,20.21
2024-04-08T14:03:30.062Z,20.23
2024-04-08T14:05:57.832Z,20.24
2024-04-08T14:08:27.226Z,20.30
2024-04-08T14:10:55.064Z,20.33
2024-04-08T14:13:22.637Z,20.36
2024-04-08T14:15:50.335Z,20.34
2024-04-08T14:18:18.597Z,20.29
2024-04-08T14:20:46.280Z,20.23
2024-04-08T14:23:13.784Z,20.15
2024-04-08T14:25:41.379Z,20.10
2024-04-08T14:28:08.851Z,20.02
2024-04-08T14:30:36.419Z,20.03
2024-04-08T14:33:06.570Z,20.02
2024-04-08T14:35:34.197Z,19.92
2024-04-08T14:38:29.748Z,19.74
2024-04-08T14:40:49.287Z,19.61
2024-04-08T14:43:25.507Z,19.54
2024-04-08T14:45:58.101Z,19.49
2024-04-08T14:48:26.051Z,19.49
2024-04-08T14:50:53.614Z,19.45
2024-04-08T14:53:21.454Z,19.41
2024-04-08T14:55:49.663Z,19.46
2024-04-08T14:58:18.222Z,19.61
2024-04-08T15:00:45.934Z,19.73
2024-04-08T15:03:13.706Z,19.93
2024-04-08T15:05:44.330Z,20.10
2024-04-08T15:08:15.411Z,20.13
2024-04-08T15:10:43.380Z,19.99
2024-04-08T15:13:11.986Z,19.79
2024-04-08T15:15:40.834Z,19.66
2024-04-08T15:18:08.522Z,19.59
2024-04-08T15:20:36.002Z,19.54
2024-04-08T15:23:03.683Z,19.54
2024-04-08T15:25:31.182Z,19.51
2024-04-08T15:27:58.835Z,19.64
2024-04-08T15:30:26.417Z,19.82
2024-04-08T15:32:54.140Z,19.84
2024-04-08T15:35:21.905Z,19.80
2024-04-08T15:37:49.481Z,19.77
2024-04-08T15:40:17.070Z,19.74
2024-04-08T15:42:44.582Z,19.63
2024-04-08T15:45:15.077Z,19.55
2024-04-08T15:47:45.467Z,19.45
2024-04-08T15:50:13.365Z,19.26
2024-04-08T15:52:41.008Z,19.07
2024-04-08T15:55:08.628Z,18.85
2024-04-08T15:57:36.207Z,18.63
2024-04-08T16:00:06.776Z,18.57
2024-04-08T16:02:34.373Z,18.62
2024-04-08T16:05:02.532Z,18.65
2024-04-08T16:07:30.266Z,18.67
2024-04-08T16:09:58.070Z,18.63
2024-04-08T16:12:28.709Z,18.59
2024-04-08T16:14:57.159Z,18.45
2024-04-08T16:17:24.640Z,18.31
2024-04-08T16:19:52.207Z,18.17
2024-04-08T16:22:23.402Z,18.01
2024-04-08T16:24:53.696Z,17.90
2024-04-08T16:27:21.259Z,17.81
2024-04-08T16:29:48.832Z,17.74
2024-04-08T16:32:16.392Z,17.62
2024-04-08T16:34:44.369Z,17.54
2024-04-08T16:37:12.159Z,17.52
2024-04-08T16:39:39.670Z,17.51
2024-04-08T16:42:07.419Z,17.49
2024-04-08T16:44:35.016Z,17.47
2024-04-08T16:47:02.649Z,17.42
2024-04-08T16:49:30.535Z,17.40
2024-04-08T16:51:57.974Z,17.32
2024-04-08T16:54:26.872Z,17.22
2024-04-08T16:56:54.506Z,17.12
2024-04-08T16:59:21.987Z,17.06
2024-04-08T17:01:49.550Z,16.99
2024-04-08T17:04:17.190Z,16.92
2024-04-08T17:06:48.264Z,16.90
2024-04-08T17:09:16.369Z,16.85
2024-04-08T17:11:43.963Z,16.86
2024-04-08T17:14:11.415Z,16.85
2024-04-08T17:16:38.964Z,16.78
2024-04-08T17:19:06.755Z,16.74
2024-04-08T17:21:36.809Z,16.68
2024-04-08T17:24:06.273Z,16.64
2024-04-08T17:26:33.963Z,16.58
2024-04-08T17:29:01.476Z,16.56
2024-04-08T17:31:28.982Z,16.51
2024-04-08T17:33:56.688Z,16.46
2024-04-08T17:36:24.388Z,16.35
2024-04-08T17:38:53.283Z,16.26
2024-04-08T17:41:23.669Z,16.17
2024-04-08T17:43:58.903Z,16.08
2024-04-08T17:46:26.430Z,15.97
2024-04-08T17:48:54.398Z,15.87
2024-04-08T17:51:22.179Z,15.71
2024-04-08T17:53:50.047Z,15.60
2024-04-08T17:56:17.712Z,15.57
2024-04-08T17:58:45.602Z,15.56
2024-04-08T18:01:18.992Z,15.56
2024-04-08T18:03:49.751Z,15.56
2024-04-08T18:06:21.133Z,15.55
2024-04-08T18:08:53.429Z,15.53
2024-04-08T18:11:26.199Z,15.51
2024-04-08T18:13:54.259Z,15.51
2024-04-08T18:16:22.342Z,15.52
2024-04-08T18:18:51.931Z,15.51
2024-04-08T18:21:21.215Z,15.51
2024-04-08T18:23:50.414Z,15.49
2024-04-08T18:26:19.360Z,15.47
2024-04-08T18:28:53.423Z,15.46
2024-04-08T18:31:21.576Z,15.44
2024-04-08T18:33:51.143Z,15.36
2024-04-08T18:36:20.429Z,15.22
2024-04-08T18:38:51.357Z,15.03
2024-04-08T18:41:19.936Z,14.85
2024-04-08T18:43:48.488Z,14.68
2024-04-08T18:46:23.609Z,14.52
2024-04-08T18:48:51.683Z,14.37
2024-04-08T18:51:19.905Z,14.26
2024-04-08T18:53:48.275Z,14.17
2024-04-08T18:56:16.669Z,14.09
2024-04-08T18:58:44.198Z,14.03
2024-04-08T19:01:21.508Z,13.98
2024-04-08T19:03:53.133Z,13.90
2024-04-08T19:06:21.313Z,13.86
2024-04-08T19:08:52.540Z,13.79
2024-04-08T19:11:20.436Z,13.73
2024-04-08T19:13:48.890Z,13.70
2024-04-08T19:16:16.536Z,13.68
2024-04-08T19:18:44.438Z,13.65
2024-04-08T19:21:12.112Z,13.65
2024-04-08T19:23:40.038Z,13.68
2024-04-08T19:26:07.697Z,13.68
2024-04-08T19:28:35.683Z,13.63
2024-04-08T19:31:04.002Z,13.61
2024-04-08T19:33:31.694Z,13.59
2024-04-08T19:35:59.865Z,13.56
2024-04-08T19:38:28.449Z,13.52
2024-04-08T19:41:00.413Z,13.49
2024-04-08T19:43:28.923Z,13.44
2024-04-08T19:46:06.201Z,13.40
2024-04-08T19:48:40.055Z,13.35
2024-04-08T19:51:13.245Z,13.32
2024-04-08T19:53:44.910Z,13.31
2024-04-08T19:56:14.486Z,13.28
2024-04-08T19:58:42.523Z,13.23
2024-04-08T20:01:11.697Z,13.19
2024-04-08T20:03:40.184Z,13.15
2024-04-08T20:06:08.600Z,13.15
2024-04-08T20:08:36.952Z,13.14
2024-04-08T20:11:06.308Z,13.11
2024-04-08T20:13:34.472Z,13.10
2024-04-08T20:16:16.559Z,13.08
2024-04-08T20:18:48.832Z,13.05
2024-04-08T20:21:26.498Z,13.01
2024-04-08T20:23:54.516Z,12.99
2024-04-08T20:26:22.047Z,13.00
2024-04-08T20:28:49.576Z,13.02
2024-04-08T20:31:17.520Z,13.01
2024-04-08T20:33:46.018Z,12.97
2024-04-08T20:36:13.754Z,12.88
2024-04-08T20:38:42.586Z,12.76
2024-04-08T20:41:11.580Z,12.63
2024-04-08T20:43:41.273Z,12.52
2024-04-08T20:46:09.339Z,12.43
2024-04-08T20:48:37.307Z,12.32
2024-04-08T20:51:06.434Z,12.21
2024-04-08T20:53:34.463Z,12.14
2024-04-08T20:56:04.414Z,12.12
2024-04-08T20:58:32.416Z,12.11
2024-04-08T21:01:07.863Z,12.08
2024-04-08T21:03:36.585Z,12.06
2024-04-08T21:06:09.304Z,12.00
2024-04-08T21:08:38.442Z,11.94
2024-04-08T21:11:06.462Z,11.88
2024-04-08T21:13:34.655Z,11.84
2024-04-08T21:16:04.377Z,11.80
2024-04-08T21:18:32.322Z,11.74
2024-04-08T21:21:06.230Z,11.67
2024-04-08T21:23:35.048Z,11.59
2024-04-08T21:26:11.173Z,11.47
2024-04-08T21:28:39.165Z,11.37
2024-04-08T21:31:07.666Z,11.28
2024-04-08T21:33:35.649Z,11.21
2024-04-08T21:36:03.759Z,11.15
2024-04-08T21:38:31.437Z,11.09
2024-04-08T21:41:02.046Z,11.05
2024-04-08T21:43:30.344Z,11.01
2024-04-08T21:46:05.425Z,10.98
2024-04-08T21:48:34.098Z,10.94
2024-04-08T21:51:04.973Z,10.88
2024-04-08T21:53:32.563Z,10.81
2024-04-08T21:56:02.899Z,10.75
2024-04-08T21:58:33.378Z,10.70
2024-04-08T22:01:05.261Z,10.59
2024-04-08T22:03:33.084Z,10.48
2024-04-08T22:06:00.861Z,10.38
2024-04-08T22:08:29.313Z,10.28
2024-04-08T22:10:57.442Z,10.22
2024-04-08T22:13:25.578Z,10.21
2024-04-08T22:15:53.208Z,10.22
2024-04-08T22:18:24.337Z,10.23
2024-04-08T22:20:53.319Z,10.26
2024-04-08T22:23:21.317Z,10.28
2024-04-08T22:25:48.944Z,10.28
2024-04-08T22:28:16.397Z,10.25
2024-04-08T22:30:44.399Z,10.23
2024-04-08T22:33:12.387Z,10.16
2024-04-08T22:35:39.980Z,10.11
2024-04-08T22:38:07.538Z,10.07
2024-04-08T22:40:35.176Z,10.01
2024-04-08T22:43:02.672Z,9.94
2024-04-08T22:45:30.217Z,9.94
2024-04-08T22:47:57.856Z,9.95
2024-04-08T22:50:25.474Z,9.91
2024-04-08T22:52:53.286Z,9.91
2024-04-08T22:55:20.787Z,9.90
2024-04-08T22:57:48.379Z,9.90
2024-04-08T23:00:16.100Z,9.91
2024-04-08T23:02:43.655Z,9.92
2024-04-08T23:05:11.712Z,9.92
2024-04-08T23:07:39.290Z,9.92
2024-04-08T23:10:07.283Z,9.92
2024-04-08T23:12:34.965Z,9.91
2024-04-08T23:15:02.788Z,9.91
2024-04-08T23:17:30.348Z,9.91
2024-04-08T23:19:59.001Z,9.90
2024-04-08T23:22:26.489Z,9.91
2024-04-08T23:24:54.040Z,9.92
2024-04-08T23:27:21.590Z,9.94
2024-04-08T23:29:49.188Z,9.94
2024-04-08T23:32:16.729Z,9.92
2024-04-08T23:34:44.341Z,9.91
2024-04-08T23:37:12.041Z,9.90
2024-04-08T23:39:39.598Z,9.90
2024-04-08T23:42:07.186Z,9.89
2024-04-08T23:44:34.996Z,9.90
2024-04-08T23:47:02.533Z,9.90
2024-04-08T23:49:30.285Z,9.89
2024-04-08T23:51:57.790Z,9.90
2024-04-08T23:54:25.343Z,9.90
2024-04-08T23:56:52.914Z,9.90
2024-04-08T23:59:20.885Z,9.89
